createdAt,value
2022-09-02T00:00:41.060Z,996.29
2022-09-02T00:01:41.096Z,996.34
2022-09-02T00:02:41.142Z,996.37
2022-09-02T00:03:41.038Z,996.34
2022-09-02T00:04:41.031Z,996.34
2022-09-02T00:05:41.029Z,996.25
2022-09-02T00:06:41.022Z,996.28
2022-09-02T00:07:41.030Z,996.27
2022-09-02T00:08:41.008Z,996.25
2022-09-02T00:09:40.998Z,996.24
2022-09-02T00:10:40.991Z,996.28
2022-09-02T00:11:40.983Z,996.32
2022-09-02T00:12:41.007Z,996.23
2022-09-02T00:13:40.958Z,996.29
2022-09-02T00:14:40.957Z,996.20
2022-09-02T00:15:40.944Z,996.20
2022-09-02T00:16:40.981Z,996.26
2022-09-02T00:17:42.019Z,996.23
2022-09-02T00:18:43.151Z,996.22
2022-09-02T00:19:41.911Z,996.24
2022-09-02T00:20:40.912Z,996.23
2022-09-02T00:21:40.901Z,996.24
2022-09-02T00:22:40.914Z,996.20
2022-09-02T00:23:40.887Z,996.20
2022-09-02T00:24:40.879Z,996.25
2022-09-02T00:25:40.867Z,996.28
2022-09-02T00:26:40.867Z,996.18
2022-09-02T00:27:40.846Z,996.17
2022-09-02T00:28:44.295Z,996.25
2022-09-02T00:29:41.838Z,996.18
2022-09-02T00:30:40.824Z,996.11
2022-09-02T00:31:40.866Z,996.13
2022-09-02T00:32:40.809Z,996.11
2022-09-02T00:33:40.827Z,996.15
2022-09-02T00:34:40.793Z,996.14
2022-09-02T00:35:40.783Z,996.10
2022-09-02T00:36:40.776Z,996.11
2022-09-02T00:37:40.771Z,996.12
2022-09-02T00:38:40.793Z,996.07
2022-09-02T00:39:40.758Z,996.10
2022-09-02T00:40:40.789Z,996.06
2022-09-02T00:41:40.733Z,996.05
2022-09-02T00:42:40.728Z,996.03
2022-09-02T00:43:40.751Z,996.11
2022-09-02T00:44:40.715Z,996.05
2022-09-02T00:45:40.763Z,996.08
2022-09-02T00:46:40.692Z,996.06
2022-09-02T00:47:40.714Z,996.06
2022-09-02T00:48:40.691Z,996.04
2022-09-02T00:49:40.673Z,996.06
2022-09-02T00:50:40.671Z,996.07
2022-09-02T00:51:40.660Z,996.05
2022-09-02T00:52:40.677Z,996.03
2022-09-02T00:53:40.635Z,996.03
2022-09-02T00:54:40.641Z,996.04
2022-09-02T00:55:41.629Z,996.05
2022-09-02T00:56:40.618Z,996.03
2022-09-02T00:57:40.633Z,996.01
2022-09-02T00:58:40.598Z,996.08
2022-09-02T00:59:40.593Z,996.04
2022-09-02T01:00:40.688Z,996.00
2022-09-02T01:01:40.675Z,996.10
2022-09-02T01:02:40.593Z,995.99
2022-09-02T01:03:40.566Z,996.00
2022-09-02T01:04:40.555Z,996.02
2022-09-02T01:05:43.732Z,995.97
2022-09-02T01:06:41.539Z,996.02
2022-09-02T01:07:40.566Z,995.97
2022-09-02T01:08:40.527Z,996.00
2022-09-02T01:09:40.514Z,996.02
2022-09-02T01:10:40.502Z,996.01
2022-09-02T01:11:40.502Z,995.98
2022-09-02T01:12:40.531Z,995.97
2022-09-02T01:13:40.485Z,995.95
2022-09-02T01:14:40.490Z,995.97
2022-09-02T01:15:40.470Z,995.96
2022-09-02T01:16:42.036Z,995.98
2022-09-02T01:17:40.477Z,995.99
2022-09-02T01:18:40.446Z,996.03
2022-09-02T01:19:40.442Z,995.97
2022-09-02T01:20:40.437Z,996.02
2022-09-02T01:21:40.422Z,995.98
2022-09-02T01:22:40.452Z,995.99
2022-09-02T01:23:40.408Z,995.95
2022-09-02T01:24:40.398Z,996.00
2022-09-02T01:25:40.393Z,995.92
2022-09-02T01:26:40.392Z,995.96
2022-09-02T01:27:40.409Z,995.92
2022-09-02T01:28:40.372Z,995.93
2022-09-02T01:29:40.369Z,995.90
2022-09-02T01:30:40.359Z,995.90
2022-09-02T01:31:40.402Z,995.94
2022-09-02T01:32:40.339Z,995.88
2022-09-02T01:33:40.590Z,995.88
2022-09-02T01:34:40.325Z,995.81
2022-09-02T01:35:40.320Z,995.94
2022-09-02T01:36:40.322Z,995.89
2022-09-02T01:37:40.303Z,995.85
2022-09-02T01:38:40.320Z,995.87
2022-09-02T01:39:40.279Z,995.88
2022-09-02T01:40:41.318Z,995.85
2022-09-02T01:41:40.269Z,995.83
2022-09-02T01:42:40.262Z,995.85
2022-09-02T01:43:40.277Z,995.87
2022-09-02T01:44:40.249Z,995.86
2022-09-02T01:45:40.243Z,995.81
2022-09-02T01:46:40.311Z,995.86
2022-09-02T01:47:40.225Z,995.93
2022-09-02T01:48:40.244Z,995.83
2022-09-02T01:49:40.210Z,995.86
2022-09-02T01:50:45.060Z,995.88
2022-09-02T01:51:42.194Z,995.83
2022-09-02T01:52:40.190Z,995.78
2022-09-02T01:53:40.203Z,995.84
2022-09-02T01:54:40.169Z,995.78
2022-09-02T01:55:40.172Z,995.80
2022-09-02T01:56:40.157Z,995.84
2022-09-02T01:57:40.145Z,995.71
2022-09-02T01:58:40.168Z,995.85
2022-09-02T01:59:40.130Z,995.77
2022-09-02T02:00:40.208Z,995.69
2022-09-02T02:01:40.230Z,995.79
2022-09-02T02:02:40.106Z,995.78
2022-09-02T02:03:40.130Z,995.75
2022-09-02T02:04:40.087Z,995.73
2022-09-02T02:05:40.091Z,995.67
2022-09-02T02:06:40.081Z,995.67
2022-09-02T02:07:40.069Z,995.63
2022-09-02T02:08:40.087Z,995.67
2022-09-02T02:09:40.057Z,995.65
2022-09-02T02:10:40.055Z,995.63
2022-09-02T02:11:40.043Z,995.55
2022-09-02T02:12:40.032Z,995.63
2022-09-02T02:13:40.048Z,995.64
2022-09-02T02:14:40.019Z,995.56
2022-09-02T02:15:40.007Z,995.56
2022-09-02T02:16:40.033Z,995.65
2022-09-02T02:17:40.065Z,995.58
2022-09-02T02:18:40.007Z,995.61
2022-09-02T02:19:39.981Z,995.60
2022-09-02T02:20:39.971Z,995.58
2022-09-02T02:21:39.962Z,995.60
2022-09-02T02:22:39.963Z,995.55
2022-09-02T02:23:39.978Z,995.59
2022-09-02T02:24:39.936Z,995.60
2022-09-02T02:25:39.930Z,995.55
2022-09-02T02:26:39.919Z,995.58
2022-09-02T02:27:39.910Z,995.51
2022-09-02T02:28:39.929Z,995.60
2022-09-02T02:29:39.901Z,995.56
2022-09-02T02:30:39.889Z,995.59
2022-09-02T02:31:39.933Z,995.50
2022-09-02T02:32:39.878Z,995.57
2022-09-02T02:33:39.897Z,995.57
2022-09-02T02:34:39.860Z,995.52
2022-09-02T02:35:39.862Z,995.58
2022-09-02T02:36:39.844Z,995.59
2022-09-02T02:37:39.840Z,995.47
2022-09-02T02:38:39.853Z,995.56
2022-09-02T02:39:39.819Z,995.56
2022-09-02T02:40:39.908Z,995.57
2022-09-02T02:41:39.803Z,995.57
2022-09-02T02:42:39.797Z,995.52
2022-09-02T02:43:39.820Z,995.52
2022-09-02T02:44:39.788Z,995.54
2022-09-02T02:45:39.787Z,995.48
2022-09-02T02:46:39.802Z,995.50
2022-09-02T02:47:39.764Z,995.50
2022-09-02T02:48:39.782Z,995.47
2022-09-02T02:49:39.744Z,995.53
2022-09-02T02:50:39.737Z,995.49
2022-09-02T02:51:39.735Z,995.48
2022-09-02T02:52:39.729Z,995.46
2022-09-02T02:53:39.720Z,995.54
2022-09-02T02:54:39.736Z,995.56
2022-09-02T02:55:39.696Z,995.56
2022-09-02T02:56:39.696Z,995.52
2022-09-02T02:57:39.664Z,995.59
2022-09-02T02:58:40.675Z,995.59
2022-09-02T02:59:39.697Z,995.58
2022-09-02T03:00:39.666Z,995.56
2022-09-02T03:01:39.758Z,995.52
2022-09-02T03:02:39.755Z,995.50
2022-09-02T03:03:39.644Z,995.56
2022-09-02T03:04:39.657Z,995.56
2022-09-02T03:05:39.620Z,995.49
2022-09-02T03:06:39.609Z,995.56
2022-09-02T03:07:39.618Z,995.54
2022-09-02T03:08:39.595Z,995.54
2022-09-02T03:09:39.619Z,995.50
2022-09-02T03:10:39.585Z,995.59
2022-09-02T03:11:39.583Z,995.52
2022-09-02T03:12:39.571Z,995.49
2022-09-02T03:13:39.562Z,995.51
2022-09-02T03:14:39.578Z,995.55
2022-09-02T03:15:39.594Z,995.50
2022-09-02T03:16:39.542Z,995.47
2022-09-02T03:17:39.524Z,995.42
2022-09-02T03:18:39.518Z,995.45
2022-09-02T03:19:39.541Z,995.43
2022-09-02T03:20:39.504Z,995.44
2022-09-02T03:21:39.502Z,995.48
2022-09-02T03:22:39.484Z,995.45
2022-09-02T03:23:39.479Z,995.46
2022-09-02T03:24:39.499Z,995.48
2022-09-02T03:25:39.459Z,995.37
2022-09-02T03:26:39.461Z,995.45
2022-09-02T03:27:39.450Z,995.46
2022-09-02T03:28:39.442Z,995.44
2022-09-02T03:29:39.450Z,995.41
2022-09-02T03:30:39.417Z,995.46
2022-09-02T03:31:39.450Z,995.45
2022-09-02T03:32:39.409Z,995.43
2022-09-02T03:33:39.394Z,995.45
2022-09-02T03:34:39.413Z,995.42
2022-09-02T03:35:39.379Z,995.51
2022-09-02T03:36:39.374Z,995.46
2022-09-02T03:37:39.362Z,995.45
2022-09-02T03:38:39.361Z,995.44
2022-09-02T03:39:39.368Z,995.48
2022-09-02T03:40:39.406Z,995.40
2022-09-02T03:41:39.333Z,995.42
2022-09-02T03:42:39.324Z,995.42
2022-09-02T03:43:39.318Z,995.43
2022-09-02T03:44:39.336Z,995.49
2022-09-02T03:45:39.351Z,995.43
2022-09-02T03:46:39.295Z,995.39
2022-09-02T03:47:39.280Z,995.42
2022-09-02T03:48:39.275Z,995.39
2022-09-02T03:49:39.296Z,995.39
2022-09-02T03:50:39.261Z,995.46
2022-09-02T03:51:39.252Z,995.36
2022-09-02T03:52:39.245Z,995.34
2022-09-02T03:53:39.251Z,995.37
2022-09-02T03:54:39.255Z,995.40
2022-09-02T03:55:39.224Z,995.34
2022-09-02T03:56:39.215Z,995.33
2022-09-02T03:57:39.209Z,995.35
2022-09-02T03:58:39.232Z,995.35
2022-09-02T03:59:39.215Z,995.31
2022-09-02T04:00:39.189Z,995.35
2022-09-02T04:01:39.210Z,995.38
2022-09-02T04:02:39.283Z,995.35
2022-09-02T04:03:39.164Z,995.38
2022-09-02T04:04:39.178Z,995.38
2022-09-02T04:05:39.146Z,995.38
2022-09-02T04:06:39.142Z,995.35
2022-09-02T04:07:39.129Z,995.38
2022-09-02T04:08:39.127Z,995.43
2022-09-02T04:09:42.378Z,995.42
2022-09-02T04:10:40.110Z,995.40
2022-09-02T04:11:39.098Z,995.39
2022-09-02T04:12:39.094Z,995.43
2022-09-02T04:13:39.090Z,995.37
2022-09-02T04:14:39.102Z,995.35
2022-09-02T04:15:39.082Z,995.32
2022-09-02T04:16:39.062Z,995.40
2022-09-02T04:17:39.052Z,995.36
2022-09-02T04:18:39.046Z,995.33
2022-09-02T04:19:39.065Z,995.35
2022-09-02T04:20:39.030Z,995.38
2022-09-02T04:21:39.021Z,995.37
2022-09-02T04:22:39.014Z,995.35
2022-09-02T04:23:39.004Z,995.32
2022-09-02T04:24:39.022Z,995.32
2022-09-02T04:25:38.987Z,995.29
2022-09-02T04:26:38.977Z,995.33
2022-09-02T04:27:39.971Z,995.31
2022-09-02T04:28:38.965Z,995.36
2022-09-02T04:29:38.982Z,995.32
2022-09-02T04:30:38.949Z,995.26
2022-09-02T04:31:38.979Z,995.28
2022-09-02T04:32:40.923Z,995.31
2022-09-02T04:33:39.931Z,995.26
2022-09-02T04:34:38.942Z,995.34
2022-09-02T04:35:38.907Z,995.32
2022-09-02T04:36:38.898Z,995.25
2022-09-02T04:37:38.888Z,995.30
2022-09-02T04:38:38.884Z,995.27
2022-09-02T04:39:38.904Z,995.23
2022-09-02T04:40:38.906Z,995.32
2022-09-02T04:41:38.860Z,995.31
2022-09-02T04:42:38.861Z,995.27
2022-09-02T04:43:38.847Z,995.30
2022-09-02T04:44:38.860Z,995.25
2022-09-02T04:45:38.831Z,995.27
2022-09-02T04:46:38.928Z,995.25
2022-09-02T04:47:38.819Z,995.34
2022-09-02T04:48:38.809Z,995.29
2022-09-02T04:49:38.824Z,995.28
2022-09-02T04:50:38.791Z,995.33
2022-09-02T04:51:38.779Z,995.28
2022-09-02T04:52:38.781Z,995.27
2022-09-02T04:53:38.769Z,995.34
2022-09-02T04:54:38.791Z,995.28
2022-09-02T04:55:38.755Z,995.31
2022-09-02T04:56:38.745Z,995.32
2022-09-02T04:57:38.738Z,995.35
2022-09-02T04:58:38.731Z,995.34
2022-09-02T04:59:38.727Z,995.32
2022-09-02T05:00:38.743Z,995.31
2022-09-02T05:01:38.834Z,995.38
2022-09-02T05:02:38.769Z,995.32
2022-09-02T05:03:38.690Z,995.33
2022-09-02T05:04:38.684Z,995.31
2022-09-02T05:05:38.702Z,995.35
2022-09-02T05:06:43.871Z,995.34
2022-09-02T05:07:40.662Z,995.36
2022-09-02T05:08:38.651Z,995.35
2022-09-02T05:09:38.644Z,995.33
2022-09-02T05:10:38.660Z,995.34
2022-09-02T05:11:38.626Z,995.38
2022-09-02T05:12:38.621Z,995.41
2022-09-02T05:13:38.612Z,995.42
2022-09-02T05:14:38.605Z,995.41
2022-09-02T05:15:38.677Z,995.42
2022-09-02T05:16:38.590Z,995.38
2022-09-02T05:17:38.586Z,995.39
2022-09-02T05:18:38.578Z,995.46
2022-09-02T05:19:38.570Z,995.39
2022-09-02T05:20:38.586Z,995.38
2022-09-02T05:21:38.544Z,995.39
2022-09-02T05:22:39.549Z,995.34
2022-09-02T05:23:38.538Z,995.38
2022-09-02T05:24:38.537Z,995.37
2022-09-02T05:25:38.549Z,995.35
2022-09-02T05:26:38.516Z,995.40
2022-09-02T05:27:38.512Z,995.41
2022-09-02T05:28:38.499Z,995.39
2022-09-02T05:29:38.498Z,995.36
2022-09-02T05:30:38.537Z,995.37
2022-09-02T05:31:38.482Z,995.33
2022-09-02T05:32:38.471Z,995.34
2022-09-02T05:33:38.466Z,995.40
2022-09-02T05:34:38.452Z,995.36
2022-09-02T05:35:38.474Z,995.35
2022-09-02T05:36:39.446Z,995.38
2022-09-02T05:37:38.440Z,995.42
2022-09-02T05:38:38.433Z,995.40
2022-09-02T05:39:38.426Z,995.42
2022-09-02T05:40:38.513Z,995.39
2022-09-02T05:41:38.410Z,995.42
2022-09-02T05:42:38.399Z,995.40
2022-09-02T05:43:38.391Z,995.35
2022-09-02T05:44:38.384Z,995.39
2022-09-02T05:45:38.416Z,995.38
2022-09-02T05:46:38.365Z,995.34
2022-09-02T05:47:38.362Z,995.36
2022-09-02T05:48:38.354Z,995.35
2022-09-02T05:49:38.348Z,995.39
2022-09-02T05:50:38.362Z,995.39
2022-09-02T05:51:38.329Z,995.42
2022-09-02T05:52:38.324Z,995.42
2022-09-02T05:53:38.314Z,995.43
2022-09-02T05:54:38.312Z,995.44
2022-09-02T05:55:38.322Z,995.48
2022-09-02T05:56:38.294Z,995.45
2022-09-02T05:57:38.285Z,995.38
2022-09-02T05:58:38.275Z,995.40
2022-09-02T05:59:38.269Z,995.38
2022-09-02T06:00:38.287Z,995.40
2022-09-02T06:01:38.310Z,995.40
2022-09-02T06:02:38.314Z,995.34
2022-09-02T06:03:38.240Z,995.39
2022-09-02T06:04:38.232Z,995.40
2022-09-02T06:05:38.247Z,995.33
2022-09-02T06:06:38.214Z,995.32
2022-09-02T06:07:38.210Z,995.37
2022-09-02T06:08:38.199Z,995.38
2022-09-02T06:09:38.196Z,995.42
2022-09-02T06:10:38.211Z,995.37
2022-09-02T06:11:38.181Z,995.45
2022-09-02T06:12:42.410Z,995.36
2022-09-02T06:13:39.163Z,995.38
2022-09-02T06:14:38.162Z,995.36
2022-09-02T06:15:38.222Z,995.39
2022-09-02T06:16:38.140Z,995.39
2022-09-02T06:17:38.132Z,995.35
2022-09-02T06:18:38.128Z,995.28
2022-09-02T06:19:38.118Z,995.31
2022-09-02T06:20:38.138Z,995.30
2022-09-02T06:21:38.099Z,995.34
2022-09-02T06:22:38.094Z,995.34
2022-09-02T06:23:38.087Z,995.33
2022-09-02T06:24:38.082Z,995.33
2022-09-02T06:25:38.096Z,995.33
2022-09-02T06:26:38.066Z,995.37
2022-09-02T06:27:38.054Z,995.41
2022-09-02T06:28:38.044Z,995.38
2022-09-02T06:29:38.040Z,995.35
2022-09-02T06:30:38.104Z,995.39
2022-09-02T06:31:38.024Z,995.38
2022-09-02T06:32:38.015Z,995.36
2022-09-02T06:33:38.038Z,995.38
2022-09-02T06:34:37.999Z,995.35
2022-09-02T06:35:38.016Z,995.35
2022-09-02T06:36:37.981Z,995.35
2022-09-02T06:37:37.975Z,995.40
2022-09-02T06:38:39.780Z,995.29
2022-09-02T06:39:37.956Z,995.37
2022-09-02T06:40:38.055Z,995.35
2022-09-02T06:41:37.937Z,995.37
2022-09-02T06:42:37.935Z,995.42
2022-09-02T06:43:42.486Z,995.36
2022-09-02T06:44:38.918Z,995.35
2022-09-02T06:45:37.936Z,995.38
2022-09-02T06:46:37.971Z,995.40
2022-09-02T06:47:37.899Z,995.39
2022-09-02T06:48:37.891Z,995.44
2022-09-02T06:49:37.879Z,995.37
2022-09-02T06:50:37.896Z,995.39
2022-09-02T06:51:37.866Z,995.44
2022-09-02T06:52:37.859Z,995.36
2022-09-02T06:53:37.850Z,995.41
2022-09-02T06:54:37.844Z,995.41
2022-09-02T06:55:37.860Z,995.35
2022-09-02T06:56:37.822Z,995.31
2022-09-02T06:57:37.815Z,995.40
2022-09-02T06:58:37.807Z,995.37
2022-09-02T06:59:37.803Z,995.34
2022-09-02T07:00:37.830Z,995.42
2022-09-02T07:01:37.864Z,995.44
2022-09-02T07:02:37.777Z,995.41
2022-09-02T07:03:37.769Z,995.44
2022-09-02T07:04:37.757Z,995.47
2022-09-02T07:05:37.752Z,995.45
2022-09-02T07:06:37.769Z,995.47
2022-09-02T07:07:37.737Z,995.43
2022-09-02T07:08:37.729Z,995.38
2022-09-02T07:09:37.723Z,995.45
2022-09-02T07:10:37.739Z,995.42
2022-09-02T07:11:37.706Z,995.40
2022-09-02T07:12:37.698Z,995.42
2022-09-02T07:13:37.694Z,995.39
2022-09-02T07:14:37.685Z,995.46
2022-09-02T07:15:37.701Z,995.47
2022-09-02T07:16:37.720Z,995.36
2022-09-02T07:17:37.658Z,995.45
2022-09-02T07:18:37.650Z,995.39
2022-09-02T07:19:37.646Z,995.35
2022-09-02T07:20:37.663Z,995.41
2022-09-02T07:21:37.629Z,995.44
2022-09-02T07:22:37.685Z,995.46
2022-09-02T07:23:40.575Z,995.50
2022-09-02T07:24:38.618Z,995.48
2022-09-02T07:25:37.632Z,995.55
2022-09-02T07:26:37.593Z,995.53
2022-09-02T07:27:37.588Z,995.53
2022-09-02T07:28:37.576Z,995.46
2022-09-02T07:29:37.568Z,995.43
2022-09-02T07:30:37.589Z,995.41
2022-09-02T07:31:37.576Z,995.45
2022-09-02T07:32:37.550Z,995.43
2022-09-02T07:33:37.537Z,995.48
2022-09-02T07:34:38.532Z,995.45
2022-09-02T07:35:37.526Z,995.44
2022-09-02T07:36:37.541Z,995.51
2022-09-02T07:37:37.508Z,995.40
2022-09-02T07:38:37.498Z,995.45
2022-09-02T07:39:37.491Z,995.48
2022-09-02T07:40:37.565Z,995.48
2022-09-02T07:41:37.501Z,995.50
2022-09-02T07:42:37.491Z,995.51
2022-09-02T07:43:37.491Z,995.44
2022-09-02T07:44:37.475Z,995.50
2022-09-02T07:45:37.540Z,995.47
2022-09-02T07:46:37.475Z,995.49
2022-09-02T07:47:37.739Z,995.48
2022-09-02T07:48:37.431Z,995.43
2022-09-02T07:50:39.413Z,995.43
2022-09-02T07:51:37.440Z,995.49
2022-09-02T07:52:37.393Z,995.53
2022-09-02T07:53:37.381Z,995.51
2022-09-02T07:54:37.377Z,995.52
2022-09-02T07:55:37.370Z,995.42
2022-09-02T07:56:37.388Z,995.44
2022-09-02T07:57:37.356Z,995.44
2022-09-02T07:58:37.345Z,995.45
2022-09-02T07:59:37.334Z,995.51
2022-09-02T08:00:37.330Z,995.47
2022-09-02T08:01:37.461Z,995.45
2022-09-02T08:02:37.333Z,995.47
2022-09-02T08:03:37.308Z,995.45
2022-09-02T08:04:37.294Z,995.44
2022-09-02T08:05:37.299Z,995.46
2022-09-02T08:06:37.304Z,995.45
2022-09-02T08:07:37.270Z,995.45
2022-09-02T08:08:37.262Z,995.41
2022-09-02T08:09:37.255Z,995.52
2022-09-02T08:10:37.249Z,995.40
2022-09-02T08:11:37.269Z,995.44
2022-09-02T08:12:37.234Z,995.47
2022-09-02T08:13:37.223Z,995.45
2022-09-02T08:14:37.218Z,995.39
2022-09-02T08:15:37.209Z,995.37
2022-09-02T08:16:37.262Z,995.41
2022-09-02T08:17:37.199Z,995.44
2022-09-02T08:18:37.187Z,995.39
2022-09-02T08:19:37.184Z,995.52
2022-09-02T08:20:37.229Z,995.50
2022-09-02T08:21:37.191Z,995.44
2022-09-02T08:22:37.168Z,995.53
2022-09-02T08:23:37.876Z,995.57
2022-09-02T08:24:38.143Z,995.48
2022-09-02T08:25:37.136Z,995.49
2022-09-02T08:26:37.164Z,995.48
2022-09-02T08:27:37.115Z,995.50
2022-09-02T08:28:37.111Z,995.42
2022-09-02T08:29:37.102Z,995.47
2022-09-02T08:30:37.092Z,995.48
2022-09-02T08:31:37.149Z,995.45
2022-09-02T08:32:37.080Z,995.41
2022-09-02T08:33:37.070Z,995.45
2022-09-02T08:34:37.065Z,995.43
2022-09-02T08:35:37.055Z,995.43
2022-09-02T08:36:37.075Z,995.39
2022-09-02T08:37:37.039Z,995.36
2022-09-02T08:38:37.047Z,995.41
2022-09-02T08:39:37.026Z,995.44
2022-09-02T08:40:37.054Z,995.41
2022-09-02T08:41:37.037Z,995.28
2022-09-02T08:42:37.016Z,995.35
2022-09-02T08:43:37.992Z,995.36
2022-09-02T08:44:36.990Z,995.31
2022-09-02T08:45:37.013Z,995.41
2022-09-02T08:46:36.997Z,995.33
2022-09-02T08:47:36.961Z,995.33
2022-09-02T08:48:36.958Z,995.30
2022-09-02T08:49:36.949Z,995.34
2022-09-02T08:50:36.942Z,995.21
2022-09-02T08:51:37.558Z,995.25
2022-09-02T08:52:36.931Z,995.21
2022-09-02T08:53:36.918Z,995.26
2022-09-02T08:54:36.913Z,995.25
2022-09-02T08:55:36.918Z,995.27
2022-09-02T08:56:36.920Z,995.21
2022-09-02T08:57:36.889Z,995.21
2022-09-02T08:58:37.881Z,995.16
2022-09-02T08:59:36.907Z,995.19
2022-09-02T09:00:36.869Z,995.24
2022-09-02T09:01:36.934Z,995.23
2022-09-02T09:02:36.923Z,995.20
2022-09-02T09:03:36.841Z,995.24
2022-09-02T09:04:36.839Z,995.22
2022-09-02T09:05:36.829Z,995.19
2022-09-02T09:06:36.853Z,995.11
2022-09-02T09:08:37.812Z,995.19
2022-09-02T09:09:36.800Z,995.11
2022-09-02T09:10:36.796Z,995.11
2022-09-02T09:11:36.815Z,995.14
2022-09-02T09:12:36.782Z,995.06
2022-09-02T09:13:41.212Z,995.09
2022-09-02T09:14:37.768Z,995.08
2022-09-02T09:15:36.757Z,995.00
2022-09-02T09:16:36.807Z,994.96
2022-09-02T09:17:36.769Z,994.97
2022-09-02T09:18:36.735Z,995.00
2022-09-02T09:19:36.729Z,994.98
2022-09-02T09:20:36.720Z,994.94
2022-09-02T09:21:36.717Z,994.89
2022-09-02T09:22:36.733Z,994.87
2022-09-02T09:23:36.704Z,994.90
2022-09-02T09:24:36.698Z,994.86
2022-09-02T09:25:36.682Z,994.86
2022-09-02T09:26:36.675Z,994.86
2022-09-02T09:27:36.694Z,994.92
2022-09-02T09:28:36.658Z,994.95
2022-09-02T09:29:36.653Z,994.81
2022-09-02T09:30:36.650Z,994.88
2022-09-02T09:31:36.677Z,994.86
2022-09-02T09:32:36.666Z,994.84
2022-09-02T09:33:36.626Z,994.83
2022-09-02T09:34:36.616Z,994.80
2022-09-02T09:35:36.608Z,994.83
2022-09-02T09:36:36.603Z,994.79
2022-09-02T09:37:36.671Z,994.73
2022-09-02T09:38:36.591Z,994.72
2022-09-02T09:39:36.596Z,994.82
2022-09-02T09:40:36.612Z,994.77
2022-09-02T09:41:36.566Z,994.70
2022-09-02T09:42:36.587Z,994.70
2022-09-02T09:43:36.553Z,994.67
2022-09-02T09:44:36.546Z,994.62
2022-09-02T09:45:36.550Z,994.66
2022-09-02T09:46:36.547Z,994.65
2022-09-02T09:47:36.547Z,994.63
2022-09-02T09:48:36.520Z,994.58
2022-09-02T09:49:36.515Z,994.66
2022-09-02T09:50:37.086Z,994.64
2022-09-02T09:51:49.848Z,994.60
2022-09-02T09:52:37.513Z,994.60
2022-09-02T09:53:36.481Z,994.59
2022-09-02T09:54:36.478Z,994.57
2022-09-02T09:55:39.759Z,994.61
2022-09-02T09:56:37.784Z,994.57
2022-09-02T09:57:37.497Z,994.61
2022-09-02T09:58:36.441Z,994.51
2022-09-02T09:59:37.438Z,994.49
2022-09-02T10:00:36.447Z,994.49
2022-09-02T10:01:36.423Z,994.49
2022-09-02T10:02:36.686Z,994.51
2022-09-02T10:03:37.412Z,994.49
2022-09-02T10:04:44.212Z,994.41
2022-09-02T10:05:38.400Z,994.34
2022-09-02T10:06:36.389Z,994.37
2022-09-02T10:07:36.405Z,994.46
2022-09-02T10:08:36.376Z,994.46
2022-09-02T10:09:36.376Z,994.40
2022-09-02T10:10:36.354Z,994.38
2022-09-02T10:11:36.350Z,994.42
2022-09-02T10:12:36.381Z,994.31
2022-09-02T10:13:36.332Z,994.34
2022-09-02T10:14:36.325Z,994.29
2022-09-02T10:15:36.314Z,994.35
2022-09-02T10:16:36.358Z,994.46
2022-09-02T10:17:36.371Z,994.37
2022-09-02T10:18:36.292Z,994.42
2022-09-02T10:19:36.281Z,994.40
2022-09-02T10:20:38.926Z,994.39
2022-09-02T10:21:38.396Z,994.36
2022-09-02T10:22:48.602Z,994.37
2022-09-02T10:23:37.250Z,994.33
2022-09-02T10:24:36.247Z,994.31
2022-09-02T10:25:36.239Z,994.30
2022-09-02T10:26:36.229Z,994.27
2022-09-02T10:27:36.248Z,994.27
2022-09-02T10:28:36.216Z,994.21
2022-09-02T10:29:36.211Z,994.20
2022-09-02T10:30:36.200Z,994.22
2022-09-02T10:31:36.228Z,994.18
2022-09-02T10:32:36.215Z,994.20
2022-09-02T10:33:36.187Z,994.25
2022-09-02T10:34:36.185Z,994.22
2022-09-02T10:35:36.172Z,994.22
2022-09-02T10:36:36.162Z,994.19
2022-09-02T10:37:36.181Z,994.20
2022-09-02T10:38:36.143Z,994.21
2022-09-02T10:39:36.135Z,994.22
2022-09-02T10:40:36.168Z,994.22
2022-09-02T10:41:36.203Z,994.27
2022-09-02T10:42:36.141Z,994.23
2022-09-02T10:43:36.105Z,994.23
2022-09-02T10:44:36.098Z,994.23
2022-09-02T10:45:36.089Z,994.20
2022-09-02T10:46:36.101Z,994.19
2022-09-02T10:47:36.093Z,994.18
2022-09-02T10:48:36.067Z,994.16
2022-09-02T10:49:36.060Z,994.25
2022-09-02T10:50:36.051Z,994.14
2022-09-02T10:51:36.045Z,994.12
2022-09-02T10:52:36.055Z,994.11
2022-09-02T10:53:36.023Z,994.05
2022-09-02T10:54:36.019Z,994.02
2022-09-02T10:55:36.015Z,994.05
2022-09-02T10:56:36.012Z,994.08
2022-09-02T10:57:36.023Z,994.04
2022-09-02T10:58:35.989Z,994.08
2022-09-02T10:59:35.981Z,994.08
2022-09-02T11:00:36.029Z,994.04
2022-09-02T11:01:36.630Z,994.09
2022-09-02T11:02:35.988Z,994.04
2022-09-02T11:03:36.026Z,994.12
2022-09-02T11:04:35.945Z,994.05
2022-09-02T11:05:35.939Z,994.16
2022-09-02T11:06:58.742Z,994.11
2022-09-02T11:07:37.944Z,994.00
2022-09-02T11:08:35.917Z,994.10
2022-09-02T11:09:35.910Z,994.13
2022-09-02T11:10:35.899Z,994.08
2022-09-02T11:11:35.891Z,994.08
2022-09-02T11:12:35.924Z,994.10
2022-09-02T11:13:35.874Z,993.99
2022-09-02T11:14:35.858Z,993.92
2022-09-02T11:15:36.861Z,993.98
2022-09-02T11:17:35.876Z,994.03
2022-09-02T11:18:35.843Z,993.98
2022-09-02T11:19:35.832Z,994.04
2022-09-02T11:20:35.828Z,993.98
2022-09-02T11:21:35.806Z,993.96
2022-09-02T11:22:36.830Z,993.87
2022-09-02T11:23:35.796Z,993.92
2022-09-02T11:24:35.786Z,993.91
2022-09-02T11:25:35.783Z,993.99
2022-09-02T11:26:35.782Z,993.96
2022-09-02T11:27:43.287Z,993.97
2022-09-02T11:28:37.755Z,993.94
2022-09-02T11:29:35.748Z,993.94
2022-09-02T11:30:35.741Z,993.86
2022-09-02T11:31:38.853Z,993.89
2022-09-02T11:32:36.756Z,993.80
2022-09-02T11:33:35.714Z,993.79
2022-09-02T11:34:35.939Z,993.81
2022-09-02T11:35:35.702Z,993.88
2022-09-02T11:36:35.694Z,993.84
2022-09-02T11:37:35.687Z,993.85
2022-09-02T11:38:35.704Z,993.87
2022-09-02T11:39:52.550Z,993.89
2022-09-02T11:40:38.910Z,993.76
2022-09-02T11:41:37.072Z,993.80
2022-09-02T11:42:36.674Z,993.77
2022-09-02T11:43:35.637Z,993.72
2022-09-02T11:44:35.628Z,993.72
2022-09-02T11:45:35.683Z,993.65
2022-09-02T11:46:35.657Z,993.70
2022-09-02T11:47:35.614Z,993.67
2022-09-02T11:48:35.626Z,993.60
2022-09-02T11:49:35.593Z,993.66
2022-09-02T11:50:38.724Z,993.60
2022-09-02T11:51:36.585Z,993.69
2022-09-02T11:52:35.574Z,993.68
2022-09-02T11:53:35.595Z,993.68
2022-09-02T11:54:35.558Z,993.68
2022-09-02T11:55:35.547Z,993.67
2022-09-02T11:56:35.545Z,993.53
2022-09-02T11:57:35.534Z,993.66
2022-09-02T11:58:35.554Z,993.72
2022-09-02T11:59:35.521Z,993.53
2022-09-02T12:00:35.531Z,993.47
2022-09-02T12:01:35.505Z,993.63
2022-09-02T12:02:35.504Z,993.61
2022-09-02T12:03:46.983Z,993.64
2022-09-02T12:04:59.470Z,993.68
2022-09-02T12:05:37.602Z,993.64
2022-09-02T12:06:35.590Z,993.64
2022-09-02T12:07:35.484Z,993.63
2022-09-02T12:08:35.479Z,993.48
2022-09-02T12:09:35.547Z,993.55
2022-09-02T12:10:35.440Z,993.50
2022-09-02T12:11:35.430Z,993.50
2022-09-02T12:12:35.423Z,993.62
2022-09-02T12:13:35.438Z,993.61
2022-09-02T12:14:35.408Z,993.56
2022-09-02T12:15:35.401Z,993.68
2022-09-02T12:16:35.467Z,993.47
2022-09-02T12:17:35.382Z,993.42
2022-09-02T12:18:35.390Z,993.39
2022-09-02T12:19:36.370Z,993.36
2022-09-02T12:20:35.358Z,993.35
2022-09-02T12:21:35.353Z,993.43
2022-09-02T12:22:35.342Z,993.36
2022-09-02T12:23:35.366Z,993.32
2022-09-02T12:24:35.328Z,993.24
2022-09-02T12:25:35.317Z,993.22
2022-09-02T12:26:35.313Z,993.23
2022-09-02T12:27:35.305Z,993.20
2022-09-02T12:28:35.322Z,993.26
2022-09-02T12:29:35.290Z,993.14
2022-09-02T12:30:35.283Z,993.26
2022-09-02T12:31:35.286Z,993.19